Time;durP1;ratioP1;P1;durP2;ratioP2;P2;SDS_P1;SDS_P2;PMS_P1;PMS_P2;Temp;Humidity;BMP_temperature;BMP_pressure;BME280_temperature;BME280_humidity;BME280_pressure;Samples;Min_cycle;Max_cycle;Signal;HPM_P1;HPM_P2
2020/12/19 00:01:32;;;;;;;11.50;9.77;;;;;;;;;;5094274;28;20262;-75
2020/12/19 00:03:57;;;;;;;11.05;9.93;;;;;;;;;;5094573;28;20027;-75
2020/12/19 00:06:22;;;;;;;10.20;9.20;;;;;;;;;;5094299;28;20016;-76
2020/12/19 00:08:47;;;;;;;10.27;8.98;;;;;;;;;;5093962;28;20015;-76
2020/12/19 00:11:13;;;;;;;9.23;8.23;;;;;;;;;;5094031;28;20016;-76
2020/12/19 00:13:38;;;;;;;12.95;8.45;;;;;;;;;;5092788;28;20282;-77
2020/12/19 00:16:03;;;;;;;10.17;8.07;;;;;;;;;;5093986;28;20362;-75
2020/12/19 00:18:28;;;;;;;8.85;7.53;;;;;;;;;;5093977;28;20349;-77
2020/12/19 00:20:53;;;;;;;8.90;7.25;;;;;;;;;;5093958;28;20030;-73
2020/12/19 00:23:18;;;;;;;8.18;7.05;;;;;;;;;;5093217;28;20098;-76
2020/12/19 00:25:44;;;;;;;8.13;6.37;;;;;;;;;;5094560;28;20460;-76
2020/12/19 00:28:09;;;;;;;8.48;7.30;;;;;;;;;;5094903;28;20307;-74
2020/12/19 00:30:34;;;;;;;7.72;6.75;;;;;;;;;;5095261;28;20059;-74
2020/12/19 00:32:59;;;;;;;7.75;6.95;;;;;;;;;;5094284;28;20127;-76
2020/12/19 00:35:24;;;;;;;7.65;6.85;;;;;;;;;;5093469;28;20055;-77
2020/12/19 00:37:50;;;;;;;7.95;6.60;;;;;;;;;;5093525;28;20024;-75
2020/12/19 00:40:15;;;;;;;8.93;6.60;;;;;;;;;;5093490;28;20112;-78
2020/12/19 00:42:40;;;;;;;7.47;6.57;;;;;;;;;;5093003;28;20300;-77
2020/12/19 00:45:06;;;;;;;9.65;7.00;;;;;;;;;;5093353;28;20164;-77
2020/12/19 00:47:40;;;;;;;7.65;6.70;;;;;;;;;;5093128;28;20400;-76
2020/12/19 00:50:07;;;;;;;7.45;6.20;;;;;;;;;;5093178;28;20077;-78
2020/12/19 00:52:32;;;;;;;7.93;6.45;;;;;;;;;;5093253;28;20024;-78
2020/12/19 00:54:57;;;;;;;7.07;6.35;;;;;;;;;;5093253;28;20023;-78
2020/12/19 00:57:22;;;;;;;6.93;6.23;;;;;;;;;;5093032;28;20156;-78
2020/12/19 00:59:48;;;;;;;8.98;6.50;;;;;;;;;;5093329;28;20676;-76
2020/12/19 01:02:13;;;;;;;6.93;6.22;;;;;;;;;;5092977;28;20020;-78
2020/12/19 01:04:38;;;;;;;7.80;6.40;;;;;;;;;;5092725;28;20410;-76
2020/12/19 01:07:03;;;;;;;8.50;6.65;;;;;;;;;;5093138;28;20262;-76
2020/12/19 01:09:28;;;;;;;9.57;6.55;;;;;;;;;;5093311;28;20023;-76
2020/12/19 01:11:53;;;;;;;7.68;6.97;;;;;;;;;;5095315;28;20028;-75
2020/12/19 01:14:19;;;;;;;7.93;7.13;;;;;;;;;;5093598;28;20369;-77
2020/12/19 01:16:44;;;;;;;9.65;6.85;;;;;;;;;;5092678;28;20265;-74
2020/12/19 01:19:09;;;;;;;9.20;7.53;;;;;;;;;;5092805;28;20070;-74
2020/12/19 01:21:34;;;;;;;9.70;7.33;;;;;;;;;;5092310;28;20620;-74
2020/12/19 01:23:59;;;;;;;7.20;6.50;;;;;;;;;;5092857;28;20307;-75
2020/12/19 01:26:25;;;;;;;9.20;7.47;;;;;;;;;;5092916;28;20044;-73
2020/12/19 01:28:50;;;;;;;8.68;7.80;;;;;;;;;;5092579;28;20439;-74
2020/12/19 01:31:20;;;;;;;8.77;7.22;;;;;;;;;;5096925;28;20085;-75
2020/12/19 01:33:45;;;;;;;7.93;7.13;;;;;;;;;;5092785;28;20099;-76
2020/12/19 01:36:12;;;;;;;8.27;7.07;;;;;;;;;;5092541;28;20040;-73
2020/12/19 01:38:37;;;;;;;7.40;6.70;;;;;;;;;;5092973;28;20468;-75
2020/12/19 01:41:03;;;;;;;9.40;6.88;;;;;;;;;;5092668;28;20048;-73
2020/12/19 01:43:42;;;;;;;7.72;6.57;;;;;;;;;;5092191;28;20056;-74
2020/12/19 01:46:08;;;;;;;8.07;7.00;;;;;;;;;;5092648;28;20024;-74
2020/12/19 01:48:33;;;;;;;11.88;7.28;;;;;;;;;;5093254;28;20024;-75
2020/12/19 01:50:58;;;;;;;8.57;7.07;;;;;;;;;;5092840;28;20016;-70
2020/12/19 01:53:24;;;;;;;9.38;6.93;;;;;;;;;;5091262;28;20762;-75
2020/12/19 01:55:51;;;;;;;8.85;7.78;;;;;;;;;;5091371;28;20473;-76
2020/12/19 01:58:16;;;;;;;8.68;7.45;;;;;;;;;;5092866;28;20024;-72
2020/12/19 02:00:42;;;;;;;8.67;7.30;;;;;;;;;;5093278;28;20469;-76
2020/12/19 02:03:07;;;;;;;7.72;7.03;;;;;;;;;;5092600;28;20317;-77
2020/12/19 02:05:35;;;;;;;9.75;7.30;;;;;;;;;;5092464;28;20020;-75
2020/12/19 02:08:01;;;;;;;8.75;7.78;;;;;;;;;;5092350;28;20538;-75
2020/12/19 02:10:26;;;;;;;10.98;7.40;;;;;;;;;;5092509;28;20020;-77
2020/12/19 02:12:51;;;;;;;8.40;7.57;;;;;;;;;;5092101;28;20020;-76
2020/12/19 02:15:16;;;;;;;10.63;8.10;;;;;;;;;;5094709;28;20056;-78
2020/12/19 02:17:42;;;;;;;10.07;8.33;;;;;;;;;;5096255;28;20254;-76
2020/12/19 02:20:07;;;;;;;10.17;8.43;;;;;;;;;;5095863;28;20298;-77
2020/12/19 02:22:32;;;;;;;13.07;9.03;;;;;;;;;;5096004;28;20274;-75
2020/12/19 02:24:57;;;;;;;10.50;8.43;;;;;;;;;;5094348;28;20258;-76
2020/12/19 02:27:22;;;;;;;12.33;9.10;;;;;;;;;;5096177;28;20024;-77
2020/12/19 02:29:48;;;;;;;11.30;9.60;;;;;;;;;;5096031;28;20290;-76
2020/12/19 02:32:13;;;;;;;10.27;9.00;;;;;;;;;;5095969;28;20262;-75
2020/12/19 02:34:38;;;;;;;10.73;9.63;;;;;;;;;;5096412;28;20262;-75
2020/12/19 02:37:03;;;;;;;10.93;9.30;;;;;;;;;;5096155;28;20032;-76
2020/12/19 02:39:28;;;;;;;13.37;9.47;;;;;;;;;;5094706;28;20317;-78
2020/12/19 02:41:53;;;;;;;12.32;9.88;;;;;;;;;;5095398;28;20277;-73
2020/12/19 02:44:19;;;;;;;11.63;10.43;;;;;;;;;;5095716;28;20101;-74
2020/12/19 02:46:45;;;;;;;11.57;10.07;;;;;;;;;;5095428;28;20096;-76
2020/12/19 02:49:11;;;;;;;14.75;10.80;;;;;;;;;;5095758;28;20077;-73
2020/12/19 02:51:36;;;;;;;14.38;10.65;;;;;;;;;;5095238;28;20052;-75
2020/12/19 02:54:02;;;;;;;12.83;10.73;;;;;;;;;;5095749;28;20019;-74
2020/12/19 02:56:27;;;;;;;11.90;10.48;;;;;;;;;;5099299;28;20290;-77
2020/12/19 02:58:52;;;;;;;13.15;10.50;;;;;;;;;;5095819;28;20048;-74
2020/12/19 03:01:17;;;;;;;12.95;11.40;;;;;;;;;;5096032;28;20529;-75
2020/12/19 03:03:42;;;;;;;12.87;11.43;;;;;;;;;;5095165;28;20030;-76
2020/12/19 03:06:07;;;;;;;15.60;10.70;;;;;;;;;;5096159;28;20254;-76
2020/12/19 03:08:33;;;;;;;13.57;10.77;;;;;;;;;;5095747;28;20262;-77
2020/12/19 03:10:58;;;;;;;13.00;11.70;;;;;;;;;;5094770;28;20307;-75
2020/12/19 03:13:23;;;;;;;15.88;11.98;;;;;;;;;;5096253;28;20266;-75
2020/12/19 03:15:49;;;;;;;12.77;11.43;;;;;;;;;;5096357;28;20023;-75
2020/12/19 03:18:14;;;;;;;13.70;11.48;;;;;;;;;;5094144;28;20407;-79
2020/12/19 03:20:39;;;;;;;12.17;10.87;;;;;;;;;;5095385;28;20016;-80
2020/12/19 03:23:04;;;;;;;13.55;11.35;;;;;;;;;;5093777;28;20770;-76
2020/12/19 03:25:29;;;;;;;13.60;11.60;;;;;;;;;;5093448;28;20469;-77
2020/12/19 03:27:55;;;;;;;13.38;12.07;;;;;;;;;;5105907;28;20246;-75
2020/12/19 03:30:24;;;;;;;15.27;11.95;;;;;;;;;;5105640;28;20016;-74
2020/12/19 03:32:50;;;;;;;13.35;11.95;;;;;;;;;;5095224;28;20016;-74
2020/12/19 03:35:16;;;;;;;13.27;11.88;;;;;;;;;;5095440;28;20036;-76
2020/12/19 03:37:41;;;;;;;15.20;11.73;;;;;;;;;;5095215;28;20019;-75
2020/12/19 03:40:06;;;;;;;12.97;11.57;;;;;;;;;;5094734;28;20023;-77
2020/12/19 03:42:31;;;;;;;14.20;12.13;;;;;;;;;;5094389;28;20848;-76
2020/12/19 03:44:56;;;;;;;13.73;11.70;;;;;;;;;;5096361;28;20035;-76
2020/12/19 03:47:21;;;;;;;14.45;12.95;;;;;;;;;;5103331;28;20016;-74
2020/12/19 03:49:47;;;;;;;13.82;11.73;;;;;;;;;;5105213;28;20023;-76
2020/12/19 03:52:12;;;;;;;13.13;11.75;;;;;;;;;;5103091;28;20027;-75
2020/12/19 03:54:37;;;;;;;15.40;13.37;;;;;;;;;;5102765;28;20103;-75
2020/12/19 03:57:02;;;;;;;16.85;13.70;;;;;;;;;;5095517;28;20280;-76
2020/12/19 03:59:27;;;;;;;15.00;12.80;;;;;;;;;;5094671;28;20020;-77
2020/12/19 04:01:53;;;;;;;15.80;13.57;;;;;;;;;;5094245;28;20285;-74
2020/12/19 04:04:18;;;;;;;15.13;13.07;;;;;;;;;;5094565;28;20649;-76
2020/12/19 04:06:43;;;;;;;15.70;13.90;;;;;;;;;;5096438;28;20034;-73
2020/12/19 04:09:08;;;;;;;16.45;13.23;;;;;;;;;;5109241;28;20636;-73
2020/12/19 04:11:33;;;;;;;15.95;13.88;;;;;;;;;;5099509;28;20035;-78
2020/12/19 04:13:58;;;;;;;15.50;13.35;;;;;;;;;;5094274;28;20019;-77
2020/12/19 04:16:24;;;;;;;17.33;14.17;;;;;;;;;;5094353;28;20080;-77
2020/12/19 04:18:49;;;;;;;18.60;14.80;;;;;;;;;;5094304;28;20376;-74
2020/12/19 04:21:14;;;;;;;15.82;14.20;;;;;;;;;;5093888;28;20249;-74
2020/12/19 04:23:40;;;;;;;17.85;14.95;;;;;;;;;;5092403;28;20130;-74
2020/12/19 04:26:05;;;;;;;19.52;14.90;;;;;;;;;;5094075;28;20119;-74
2020/12/19 04:28:30;;;;;;;16.90;14.77;;;;;;;;;;5094020;28;20047;-73
2020/12/19 04:30:55;;;;;;;18.33;15.55;;;;;;;;;;5094493;28;20254;-75
2020/12/19 04:33:21;;;;;;;18.10;14.70;;;;;;;;;;5093867;28;20457;-74
2020/12/19 04:35:46;;;;;;;20.00;15.77;;;;;;;;;;5093519;28;20270;-68
2020/12/19 04:38:11;;;;;;;17.88;15.65;;;;;;;;;;5093167;28;20422;-73
2020/12/19 04:40:37;;;;;;;19.70;15.38;;;;;;;;;;5093616;28;20020;-73
2020/12/19 04:43:13;;;;;;;16.75;14.88;;;;;;;;;;5092878;28;20453;-71
2020/12/19 04:45:38;;;;;;;19.55;15.88;;;;;;;;;;5093460;28;20040;-69
2020/12/19 04:48:03;;;;;;;18.52;16.15;;;;;;;;;;5093317;28;20488;-72
2020/12/19 04:50:29;;;;;;;20.07;16.43;;;;;;;;;;5093536;28;20024;-69
2020/12/19 04:52:54;;;;;;;17.23;15.38;;;;;;;;;;5093041;28;20320;-70
2020/12/19 04:55:20;;;;;;;18.58;16.13;;;;;;;;;;5093478;28;20420;-70
2020/12/19 04:57:46;;;;;;;20.25;15.93;;;;;;;;;;5093285;28;20032;-74
2020/12/19 05:00:11;;;;;;;17.58;14.98;;;;;;;;;;5093083;28;20440;-71
2020/12/19 05:02:36;;;;;;;15.65;14.05;;;;;;;;;;5092429;28;20103;-74
2020/12/19 05:05:04;;;;;;;17.70;15.60;;;;;;;;;;5092809;28;20039;-72
2020/12/19 05:07:29;;;;;;;17.55;15.70;;;;;;;;;;5092835;28;20278;-71
2020/12/19 05:09:54;;;;;;;18.75;15.57;;;;;;;;;;5093052;28;20024;-73
2020/12/19 05:12:20;;;;;;;18.30;15.07;;;;;;;;;;5092784;28;20057;-70
2020/12/19 05:14:45;;;;;;;20.17;15.83;;;;;;;;;;5093523;28;20064;-68
2020/12/19 05:17:10;;;;;;;17.98;15.38;;;;;;;;;;5092752;28;20253;-71
2020/12/19 05:19:35;;;;;;;17.97;14.97;;;;;;;;;;5093182;28;20028;-72
2020/12/19 05:22:00;;;;;;;18.07;15.43;;;;;;;;;;5092776;28;20630;-70
2020/12/19 05:24:29;;;;;;;16.95;14.95;;;;;;;;;;5093208;28;20253;-71
2020/12/19 05:26:54;;;;;;;17.30;15.18;;;;;;;;;;5092576;28;20096;-74
2020/12/19 05:29:19;;;;;;;15.75;14.02;;;;;;;;;;5092987;28;20099;-71
2020/12/19 05:31:55;;;;;;;15.05;13.45;;;;;;;;;;5092419;28;20012;-72
2020/12/19 05:34:21;;;;;;;15.68;12.80;;;;;;;;;;5093087;28;20346;-78
2020/12/19 05:36:47;;;;;;;14.32;12.30;;;;;;;;;;5092901;28;20078;-76
2020/12/19 05:39:13;;;;;;;14.65;12.15;;;;;;;;;;5093460;28;20133;-74
2020/12/19 05:41:38;;;;;;;14.98;13.38;;;;;;;;;;5092845;28;20020;-76
2020/12/19 05:44:03;;;;;;;17.88;13.77;;;;;;;;;;5093904;28;20020;-74
2020/12/19 05:46:30;;;;;;;15.18;13.48;;;;;;;;;;5092845;28;20027;-75
2020/12/19 05:48:56;;;;;;;16.13;13.38;;;;;;;;;;5092831;28;20089;-76
2020/12/19 05:51:21;;;;;;;18.58;14.30;;;;;;;;;;5096574;28;20012;-78
2020/12/19 05:53:50;;;;;;;16.42;13.45;;;;;;;;;;5096883;28;20027;-76
2020/12/19 05:56:16;;;;;;;14.98;12.32;;;;;;;;;;5097034;28;20031;-76
2020/12/19 05:58:43;;;;;;;16.70;13.20;;;;;;;;;;5096611;28;20016;-75
2020/12/19 06:01:08;;;;;;;13.95;12.45;;;;;;;;;;5096679;28;20106;-75
2020/12/19 06:03:37;;;;;;;15.60;13.20;;;;;;;;;;5096264;28;20114;-77
2020/12/19 06:06:02;;;;;;;14.27;12.77;;;;;;;;;;5096336;28;20016;-76
2020/12/19 06:08:28;;;;;;;13.73;12.25;;;;;;;;;;5096588;28;20027;-76
2020/12/19 06:10:53;;;;;;;13.10;11.77;;;;;;;;;;5096547;28;20028;-77
2020/12/19 06:13:20;;;;;;;15.73;11.60;;;;;;;;;;5095954;28;20027;-76
2020/12/19 06:16:05;;;;;;;13.18;11.63;;;;;;;;;;5097325;28;20024;-80
2020/12/19 06:18:36;;;;;;;14.40;11.95;;;;;;;;;;5096721;28;20032;-76
2020/12/19 06:21:06;;;;;;;13.80;11.90;;;;;;;;;;5096177;28;20095;-76
2020/12/19 06:23:34;;;;;;;13.80;11.82;;;;;;;;;;5096222;28;20028;-73
2020/12/19 06:26:00;;;;;;;13.77;11.68;;;;;;;;;;5096312;28;20351;-77
2020/12/19 06:28:40;;;;;;;15.63;12.68;;;;;;;;;;5096586;28;20023;-76
2020/12/19 06:31:06;;;;;;;13.50;12.10;;;;;;;;;;5096142;28;20098;-75
2020/12/19 06:33:35;;;;;;;12.68;11.43;;;;;;;;;;5095651;28;20097;-73
2020/12/19 06:36:02;;;;;;;13.63;11.52;;;;;;;;;;5095941;28;20027;-73
2020/12/19 06:38:43;;;;;;;13.45;12.10;;;;;;;;;;5096245;28;20104;-76
2020/12/19 06:41:09;;;;;;;17.35;12.52;;;;;;;;;;5096035;28;20028;-75
2020/12/19 06:43:34;;;;;;;13.73;12.32;;;;;;;;;;5095538;28;20096;-72
2020/12/19 06:45:59;;;;;;;14.15;12.65;;;;;;;;;;5095598;28;20016;-70
2020/12/19 06:48:26;;;;;;;15.35;12.65;;;;;;;;;;5095969;28;20048;-70
2020/12/19 06:50:56;;;;;;;15.13;13.52;;;;;;;;;;5095939;28;20095;-71
2020/12/19 06:53:21;;;;;;;16.08;14.32;;;;;;;;;;5095696;28;20032;-71
2020/12/19 06:55:46;;;;;;;14.73;13.25;;;;;;;;;;5096728;28;20031;-70
2020/12/19 06:58:11;;;;;;;14.63;13.13;;;;;;;;;;5096118;28;20107;-73
2020/12/19 07:00:37;;;;;;;15.13;13.27;;;;;;;;;;5096858;28;20295;-74
2020/12/19 07:03:03;;;;;;;17.50;13.80;;;;;;;;;;5099252;28;20278;-73
2020/12/19 07:05:30;;;;;;;15.15;13.60;;;;;;;;;;5099509;28;20536;-73
2020/12/19 07:08:31;;;;;;;14.93;13.25;;;;;;;;;;5095610;28;20102;-72
2020/12/19 07:10:56;;;;;;;15.85;12.75;;;;;;;;;;5053198;28;20096;-73
2020/12/19 07:13:21;;;;;;;13.15;11.63;;;;;;;;;;5086393;28;20493;-71
2020/12/19 07:15:51;;;;;;;14.18;11.15;;;;;;;;;;5095612;28;20347;-74
2020/12/19 07:18:30;;;;;;;13.85;12.07;;;;;;;;;;5095368;28;20035;-70
2020/12/19 07:21:01;;;;;;;12.30;11.10;;;;;;;;;;5095542;28;20020;-74
2020/12/19 07:23:30;;;;;;;13.35;10.55;;;;;;;;;;5095452;28;20016;-72
2020/12/19 07:25:55;;;;;;;12.23;10.68;;;;;;;;;;5095531;28;20056;-71
2020/12/19 07:28:20;;;;;;;12.15;10.85;;;;;;;;;;5095413;28;20397;-71
2020/12/19 07:30:46;;;;;;;14.65;11.50;;;;;;;;;;5095190;28;20020;-69
2020/12/19 07:33:11;;;;;;;12.98;11.68;;;;;;;;;;5094558;28;20024;-70
2020/12/19 07:35:36;;;;;;;15.07;12.88;;;;;;;;;;5094804;28;20028;-71
2020/12/19 07:38:02;;;;;;;12.32;11.02;;;;;;;;;;5094548;28;20313;-69
2020/12/19 07:40:28;;;;;;;13.13;11.70;;;;;;;;;;5093126;28;20016;-78
2020/12/19 07:43:06;;;;;;;12.65;11.30;;;;;;;;;;5094038;28;20028;-75
2020/12/19 07:45:34;;;;;;;12.18;10.98;;;;;;;;;;5094244;28;20020;-75
2020/12/19 07:47:59;;;;;;;15.50;12.15;;;;;;;;;;5094252;28;20020;-73
2020/12/19 07:50:25;;;;;;;12.30;10.98;;;;;;;;;;5094284;28;20012;-71
2020/12/19 07:53:00;;;;;;;12.73;11.05;;;;;;;;;;5092755;28;20111;-71
2020/12/19 07:55:25;;;;;;;12.18;10.88;;;;;;;;;;5094634;28;20472;-75
2020/12/19 07:57:52;;;;;;;12.85;10.40;;;;;;;;;;5094394;28;20111;-72
2020/12/19 08:00:17;;;;;;;11.80;9.77;;;;;;;;;;5092900;28;20023;-72
2020/12/19 08:02:43;;;;;;;11.23;10.05;;;;;;;;;;5087139;28;20028;-72
2020/12/19 08:05:08;;;;;;;11.07;9.67;;;;;;;;;;5087659;28;20390;-73
2020/12/19 08:07:33;;;;;;;10.68;9.68;;;;;;;;;;5075369;28;20331;-72
2020/12/19 08:10:16;;;;;;;12.95;9.88;;;;;;;;;;5071804;28;20059;-72
2020/12/19 08:12:42;;;;;;;12.98;11.68;;;;;;;;;;5069653;28;20049;-70
2020/12/19 08:15:09;;;;;;;12.70;10.23;;;;;;;;;;5072495;28;20023;-71
2020/12/19 08:17:38;;;;;;;13.93;11.30;;;;;;;;;;5061474;28;20029;-74
2020/12/19 08:20:03;;;;;;;13.65;10.93;;;;;;;;;;5092132;28;20031;-73
2020/12/19 08:22:29;;;;;;;12.15;10.75;;;;;;;;;;5093429;28;20469;-66
2020/12/19 08:24:54;;;;;;;13.98;10.75;;;;;;;;;;5094095;28;20087;-70
2020/12/19 08:27:35;;;;;;;12.48;10.57;;;;;;;;;;5093671;28;20012;-69
2020/12/19 08:30:05;;;;;;;12.43;10.32;;;;;;;;;;5093828;28;20109;-67
2020/12/19 08:32:30;;;;;;;12.07;10.43;;;;;;;;;;5067893;28;20024;-70
2020/12/19 08:34:55;;;;;;;12.90;9.98;;;;;;;;;;5073071;28;20112;-66
2020/12/19 08:37:21;;;;;;;11.40;9.85;;;;;;;;;;5073041;28;20016;-69
2020/12/19 08:40:25;;;;;;;10.85;9.75;;;;;;;;;;5073636;28;20385;-75
2020/12/19 08:42:52;;;;;;;10.65;9.55;;;;;;;;;;5030665;28;20022;-70
2020/12/19 08:45:20;;;;;;;10.25;9.20;;;;;;;;;;5031176;28;20017;-68
2020/12/19 08:47:45;;;;;;;11.35;9.38;;;;;;;;;;5051904;28;20055;-68
2020/12/19 08:50:14;;;;;;;12.27;9.80;;;;;;;;;;5073251;28;20382;-67
2020/12/19 08:52:40;;;;;;;10.07;8.93;;;;;;;;;;5072740;28;20066;-69
2020/12/19 08:55:05;;;;;;;10.50;9.27;;;;;;;;;;5072875;28;20024;-65
2020/12/19 08:57:31;;;;;;;10.23;8.80;;;;;;;;;;5072879;28;20031;-68
2020/12/19 09:00:13;;;;;;;10.52;8.57;;;;;;;;;;5070224;28;20346;-68
2020/12/19 09:02:42;;;;;;;9.07;8.18;;;;;;;;;;5072568;28;20020;-69
2020/12/19 09:05:07;;;;;;;9.57;8.10;;;;;;;;;;5073188;28;20062;-70
2020/12/19 09:07:32;;;;;;;8.70;7.57;;;;;;;;;;5072825;28;20036;-69
2020/12/19 09:10:00;;;;;;;10.33;7.80;;;;;;;;;;5072741;28;20021;-70
2020/12/19 09:12:26;;;;;;;8.80;7.50;;;;;;;;;;5072872;28;20266;-71
2020/12/19 09:14:58;;;;;;;8.85;7.13;;;;;;;;;;5073111;28;20386;-72
2020/12/19 09:17:30;;;;;;;7.68;6.60;;;;;;;;;;5072785;28;20047;-72
2020/12/19 09:20:00;;;;;;;9.18;6.82;;;;;;;;;;5073530;28;20032;-70
2020/12/19 09:22:25;;;;;;;8.63;6.63;;;;;;;;;;5070714;28;20021;-70
2020/12/19 09:24:50;;;;;;;8.40;6.75;;;;;;;;;;5068619;28;20066;-71
2020/12/19 09:27:18;;;;;;;7.23;6.47;;;;;;;;;;5071574;28;20026;-72
2020/12/19 09:29:46;;;;;;;8.77;6.70;;;;;;;;;;5072169;28;20027;-71
2020/12/19 09:32:12;;;;;;;7.07;6.32;;;;;;;;;;5070406;28;20119;-69
2020/12/19 09:34:37;;;;;;;8.25;6.15;;;;;;;;;;5071919;28;20120;-70
2020/12/19 09:37:02;;;;;;;7.37;5.80;;;;;;;;;;5072246;28;20025;-70
2020/12/19 09:39:27;;;;;;;8.47;6.50;;;;;;;;;;5072982;28;20251;-71
2020/12/19 09:41:52;;;;;;;7.97;6.70;;;;;;;;;;5072024;28;20302;-71
2020/12/19 09:44:21;;;;;;;7.80;6.57;;;;;;;;;;5073211;28;20251;-72
2020/12/19 09:46:46;;;;;;;7.80;6.13;;;;;;;;;;5072302;28;20254;-72
2020/12/19 09:49:11;;;;;;;8.15;6.55;;;;;;;;;;5072385;28;20016;-74
2020/12/19 09:51:36;;;;;;;7.00;6.30;;;;;;;;;;5071830;28;20021;-70
2020/12/19 09:54:01;;;;;;;7.60;5.87;;;;;;;;;;5069148;28;20763;-70
2020/12/19 09:56:27;;;;;;;8.37;6.23;;;;;;;;;;5070154;28;20262;-70
2020/12/19 09:58:52;;;;;;;6.78;6.07;;;;;;;;;;5069927;28;20043;-70
2020/12/19 10:01:17;;;;;;;6.87;6.10;;;;;;;;;;5071307;28;20406;-70
2020/12/19 10:03:45;;;;;;;8.07;5.90;;;;;;;;;;5072357;28;20344;-74
2020/12/19 10:06:13;;;;;;;6.88;5.78;;;;;;;;;;5072463;28;20265;-72
2020/12/19 10:08:41;;;;;;;6.63;5.78;;;;;;;;;;5071951;28;20039;-68
2020/12/19 10:11:06;;;;;;;6.40;5.32;;;;;;;;;;5072218;28;20024;-72
2020/12/19 10:13:31;;;;;;;7.40;5.90;;;;;;;;;;5071701;28;20027;-73
2020/12/19 10:15:59;;;;;;;7.23;5.63;;;;;;;;;;5072094;28;20805;-66
2020/12/19 10:18:27;;;;;;;6.03;5.43;;;;;;;;;;5072683;28;20254;-69
2020/12/19 10:20:52;;;;;;;7.75;5.30;;;;;;;;;;5072298;28;20037;-69
2020/12/19 10:23:17;;;;;;;6.43;5.60;;;;;;;;;;5071948;28;20482;-73
2020/12/19 10:25:43;;;;;;;5.30;4.80;;;;;;;;;;5072370;28;20028;-72
2020/12/19 10:28:08;;;;;;;9.40;5.30;;;;;;;;;;5072113;28;20256;-72
2020/12/19 10:30:33;;;;;;;7.00;4.90;;;;;;;;;;5072347;28;20342;-74
2020/12/19 10:32:58;;;;;;;7.60;5.07;;;;;;;;;;5071514;28;20259;-71
2020/12/19 10:35:23;;;;;;;5.77;5.10;;;;;;;;;;5072804;28;20328;-75
2020/12/19 10:37:49;;;;;;;5.63;4.45;;;;;;;;;;5075902;28;20263;-70
2020/12/19 10:40:14;;;;;;;6.03;5.27;;;;;;;;;;5075812;28;20489;-75
2020/12/19 10:42:39;;;;;;;7.45;4.80;;;;;;;;;;5075376;28;20373;-75
2020/12/19 10:45:04;;;;;;;7.28;4.97;;;;;;;;;;5075462;28;20024;-75
2020/12/19 10:47:29;;;;;;;7.45;5.43;;;;;;;;;;5075544;28;20024;-75
2020/12/19 10:49:55;;;;;;;7.53;4.70;;;;;;;;;;5075386;28;20096;-76
2020/12/19 10:52:20;;;;;;;6.43;4.75;;;;;;;;;;5075076;28;20028;-74
2020/12/19 10:54:45;;;;;;;5.38;4.25;;;;;;;;;;5075712;28;20111;-74
2020/12/19 10:57:10;;;;;;;5.37;4.40;;;;;;;;;;5075135;28;20040;-73
2020/12/19 10:59:38;;;;;;;7.70;4.68;;;;;;;;;;5075115;28;20337;-75
2020/12/19 11:02:04;;;;;;;8.50;4.80;;;;;;;;;;5069556;28;20034;-75
2020/12/19 11:04:29;;;;;;;5.32;4.70;;;;;;;;;;5074678;28;20028;-75
2020/12/19 11:06:54;;;;;;;5.47;4.75;;;;;;;;;;5074888;28;20020;-75
2020/12/19 11:09:19;;;;;;;5.60;4.50;;;;;;;;;;5074793;28;20090;-75
2020/12/19 11:11:54;;;;;;;9.00;4.70;;;;;;;;;;5074384;28;20341;-76
2020/12/19 11:14:20;;;;;;;5.47;4.47;;;;;;;;;;5074793;28;20337;-74
2020/12/19 11:16:45;;;;;;;6.82;4.63;;;;;;;;;;5074601;28;20017;-76
2020/12/19 11:19:10;;;;;;;6.27;4.77;;;;;;;;;;5074988;28;20017;-75
2020/12/19 11:21:42;;;;;;;6.95;4.75;;;;;;;;;;5074278;28;20965;-71
2020/12/19 11:24:08;;;;;;;5.10;4.60;;;;;;;;;;5074216;28;20082;-74
2020/12/19 11:26:33;;;;;;;4.72;4.22;;;;;;;;;;5075598;28;20028;-75
2020/12/19 11:28:58;;;;;;;5.88;4.68;;;;;;;;;;5069344;28;20091;-75
2020/12/19 11:31:24;;;;;;;5.87;4.40;;;;;;;;;;5073594;28;20029;-75
2020/12/19 11:33:49;;;;;;;6.18;4.07;;;;;;;;;;5066011;28;20263;-74
2020/12/19 11:36:15;;;;;;;5.93;4.15;;;;;;;;;;5061641;28;20028;-74
2020/12/19 11:38:40;;;;;;;7.25;4.38;;;;;;;;;;5074025;28;20025;-75
2020/12/19 11:41:05;;;;;;;5.53;4.70;;;;;;;;;;5073836;28;20143;-75
2020/12/19 11:43:30;;;;;;;5.25;4.10;;;;;;;;;;5073354;28;20621;-73
2020/12/19 11:45:55;;;;;;;6.10;3.90;;;;;;;;;;5073419;28;20474;-73
2020/12/19 11:48:21;;;;;;;4.78;4.00;;;;;;;;;;5072642;28;20093;-73
2020/12/19 11:50:46;;;;;;;7.23;4.10;;;;;;;;;;5074955;28;20028;-71
2020/12/19 11:53:11;;;;;;;4.20;3.37;;;;;;;;;;5074964;28;20479;-73
2020/12/19 11:55:36;;;;;;;3.83;3.43;;;;;;;;;;5075255;28;20266;-73
2020/12/19 11:58:01;;;;;;;6.43;4.00;;;;;;;;;;5075345;28;20028;-73
2020/12/19 12:00:26;;;;;;;4.67;3.50;;;;;;;;;;5073912;28;20290;-73
2020/12/19 12:02:52;;;;;;;4.68;3.60;;;;;;;;;;5073363;28;20369;-72
2020/12/19 12:05:24;;;;;;;5.43;3.60;;;;;;;;;;5073635;28;20370;-73
2020/12/19 12:07:50;;;;;;;5.50;4.38;;;;;;;;;;5073539;28;20025;-73
2020/12/19 12:10:15;;;;;;;4.38;3.63;;;;;;;;;;5073815;28;20469;-73
2020/12/19 12:12:40;;;;;;;6.60;3.83;;;;;;;;;;5073371;28;20020;-72
2020/12/19 12:15:08;;;;;;;4.03;3.40;;;;;;;;;;5073952;28;20070;-74
2020/12/19 12:17:36;;;;;;;6.00;3.78;;;;;;;;;;5073809;28;20259;-71
2020/12/19 12:20:02;;;;;;;5.65;3.40;;;;;;;;;;5074400;28;20077;-73
2020/12/19 12:22:34;;;;;;;4.00;3.30;;;;;;;;;;5073901;28;20029;-75
2020/12/19 12:25:03;;;;;;;5.90;3.45;;;;;;;;;;5073789;28;20087;-74
2020/12/19 12:27:32;;;;;;;4.47;3.55;;;;;;;;;;5075170;28;20358;-75
2020/12/19 12:30:00;;;;;;;6.70;3.50;;;;;;;;;;5073606;28;20051;-76
2020/12/19 12:32:28;;;;;;;4.72;3.45;;;;;;;;;;5073671;28;20081;-74
2020/12/19 12:34:53;;;;;;;6.95;3.35;;;;;;;;;;5073925;28;20103;-71
2020/12/19 12:37:18;;;;;;;4.27;3.20;;;;;;;;;;5072802;28;20446;-71
2020/12/19 12:39:43;;;;;;;5.63;3.10;;;;;;;;;;5073114;28;20028;-70
2020/12/19 12:42:08;;;;;;;4.35;3.05;;;;;;;;;;5060515;28;20842;-70
2020/12/19 12:44:33;;;;;;;6.73;3.13;;;;;;;;;;5053535;28;20051;-71
2020/12/19 12:47:00;;;;;;;4.18;2.78;;;;;;;;;;5053020;28;20293;-71
2020/12/19 12:49:25;;;;;;;7.28;3.33;;;;;;;;;;5053054;28;20378;-68
2020/12/19 12:51:50;;;;;;;6.43;3.10;;;;;;;;;;5054499;28;20036;-68
2020/12/19 12:54:15;;;;;;;4.70;2.90;;;;;;;;;;5051666;28;20040;-67
2020/12/19 12:56:40;;;;;;;6.97;3.03;;;;;;;;;;5053281;28;20071;-68
2020/12/19 12:59:05;;;;;;;10.15;3.03;;;;;;;;;;5067218;28;20035;-74
2020/12/19 13:01:32;;;;;;;5.37;3.00;;;;;;;;;;5072806;28;20051;-71
